Terminal Aerodrome Forecast
Issued by NWS

Current Version | Previous Version | Text Only | Print | Product List | Glossary Off
Versions: 1 2 3 4 5 6 7 8 9 10 11 12 13 14 15 16 17 18 19 20 21 22 23 24

000
FTUS41 KILN 230200 AAA
TAFLCK
TAF AMD
KLCK 230217Z 2302/2324 01005KT P6SM OVC035
     FM231100 02004KT P6SM SCT025
     FM231300 33005KT P6SM SCT250=

USA.gov is the U.S. government's official web portal to all federal, state and local government web resources and services.